Time;durP1;ratioP1;P1;durP2;ratioP2;P2;SDS_P1;SDS_P2;PMS_P1;PMS_P2;Temp;Humidity;BMP_temperature;BMP_pressure;BME280_temperature;BME280_humidity;BME280_pressure;Samples;Min_cycle;Max_cycle;Signal;HPM_P1;HPM_P2
2022/09/25 00:01:58;;;;;;;7.90;1.42;;;9.30;99.90;;;;;;4248882;27;20031;-84
2022/09/25 00:03:59;;;;;;;6.82;1.60;;;9.30;99.90;;;;;;4231274;28;20101;-84
2022/09/25 00:06:02;;;;;;;4.57;1.55;;;9.30;99.90;;;;;;4231263;28;20077;-83
2022/09/25 00:08:03;;;;;;;8.43;1.60;;;9.30;99.90;;;;;;4249511;27;20407;-83
2022/09/25 00:10:04;;;;;;;4.55;1.02;;;9.30;99.90;;;;;;4249415;27;20043;-83
2022/09/25 00:12:05;;;;;;;6.15;1.25;;;9.30;99.90;;;;;;4248963;27;20050;-83
2022/09/25 00:14:08;;;;;;;6.70;1.08;;;9.30;99.90;;;;;;4248959;27;20478;-83
2022/09/25 00:16:11;;;;;;;9.02;1.20;;;9.30;99.90;;;;;;4249332;27;20104;-84
2022/09/25 00:18:11;;;;;;;3.67;1.23;;;9.30;99.90;;;;;;4231011;28;20087;-84
2022/09/25 00:20:14;;;;;;;6.22;1.13;;;9.20;99.90;;;;;;4231053;28;20074;-84
2022/09/25 00:22:20;;;;;;;5.30;0.80;;;9.20;99.90;;;;;;4231124;28;20044;-84
2022/09/25 00:24:21;;;;;;;8.38;1.35;;;9.10;99.90;;;;;;4248781;27;20035;-84
2022/09/25 00:26:24;;;;;;;3.55;1.08;;;9.10;99.90;;;;;;4249146;27;20073;-84
2022/09/25 00:28:28;;;;;;;3.72;1.13;;;9.10;99.90;;;;;;4249121;27;20066;-84
2022/09/25 00:30:30;;;;;;;7.57;1.58;;;9.10;99.90;;;;;;4230552;28;20491;-84
2022/09/25 00:32:30;;;;;;;5.80;1.52;;;9.10;99.90;;;;;;4248830;27;20039;-84
2022/09/25 00:34:31;;;;;;;4.05;1.30;;;9.20;99.90;;;;;;4230792;28;20044;-84
2022/09/25 00:36:32;;;;;;;7.20;1.33;;;9.10;99.90;;;;;;4248406;27;20039;-84
2022/09/25 00:38:34;;;;;;;8.15;1.48;;;9.00;99.90;;;;;;4248943;27;20501;-84
2022/09/25 00:40:35;;;;;;;5.72;1.50;;;9.00;99.90;;;;;;4248693;27;20047;-84
2022/09/25 00:42:36;;;;;;;5.00;1.23;;;9.00;99.90;;;;;;4248607;27;20522;-84
2022/09/25 00:45:00;;;;;;;4.07;1.30;;;9.10;99.90;;;;;;4249159;27;20416;-84
2022/09/25 00:47:01;;;;;;;3.15;0.90;;;9.00;99.90;;;;;;4248824;27;20043;-84
2022/09/25 00:49:18;;;;;;;6.30;1.50;;;9.00;99.90;;;;;;4248535;27;20413;-84
2022/09/25 00:51:27;;;;;;;7.88;1.35;;;9.00;99.90;;;;;;4248725;27;20046;-84
2022/09/25 00:53:35;;;;;;;;;;;9.00;99.90;;;;;;4249131;27;20043;-84
2022/09/25 00:55:39;;;;;;;3.00;1.05;;;9.00;99.90;;;;;;4248551;27;19919;-84
2022/09/25 00:57:45;;;;;;;6.72;1.08;;;9.00;99.90;;;;;;4248197;27;20491;-84
2022/09/25 00:59:51;;;;;;;3.92;1.20;;;8.10;99.90;;;;;;4248682;27;20043;-84
2022/09/25 01:01:52;;;;;;;4.60;1.48;;;9.00;99.90;;;;;;4248385;27;20088;-84
2022/09/25 01:03:54;;;;;;;4.47;1.50;;;8.90;99.90;;;;;;4248881;27;20039;-84
2022/09/25 01:05:59;;;;;;;4.03;1.27;;;9.00;99.90;;;;;;4247969;27;20498;-84
2022/09/25 01:08:03;;;;;;;4.85;1.10;;;8.90;99.90;;;;;;4248570;27;20051;-84
2022/09/25 01:10:07;;;;;;;4.72;0.90;;;8.90;99.90;;;;;;4230464;28;20483;-84
2022/09/25 01:12:08;;;;;;;3.13;1.20;;;9.00;99.90;;;;;;4248571;27;20075;-84
2022/09/25 01:14:10;;;;;;;3.90;1.20;;;8.90;99.90;;;;;;4229997;28;20052;-84
2022/09/25 01:16:29;;;;;;;10.52;1.45;;;8.90;99.90;;;;;;4229762;28;20048;-85
2022/09/25 01:18:57;;;;;;;4.47;0.98;;;8.90;99.90;;;;;;4230065;28;20099;-84
2022/09/25 01:21:17;;;;;;;3.20;1.00;;;8.90;99.90;;;;;;4230148;28;20089;-85
2022/09/25 01:23:36;;;;;;;4.57;1.20;;;8.80;99.90;;;;;;4228195;28;20047;-84
2022/09/25 01:25:58;;;;;;;5.15;1.35;;;8.80;99.90;;;;;;4212797;28;20396;-84
2022/09/25 01:28:18;;;;;;;6.30;0.98;;;9.10;99.90;;;;;;4248306;27;20380;-85
2022/09/25 01:30:19;;;;;;;5.45;1.10;;;8.80;99.90;;;;;;4248113;27;20398;-85
2022/09/25 01:32:33;;;;;;;7.45;1.45;;;8.70;99.90;;;;;;4247980;27;20455;-84
2022/09/25 01:34:55;;;;;;;5.65;0.98;;;8.80;99.90;;;;;;4230342;28;20058;-84
2022/09/25 01:37:15;;;;;;;7.95;1.40;;;8.70;99.90;;;;;;4247922;27;20055;-83
2022/09/25 01:39:24;;;;;;;3.38;1.00;;;8.70;99.90;;;;;;4248065;27;20491;-85
2022/09/25 01:41:54;;;;;;;2.22;1.15;;;8.70;99.90;;;;;;4247795;27;20039;-83
2022/09/25 01:43:57;;;;;;;8.82;1.17;;;8.60;99.90;;;;;;4213059;28;20044;-84
2022/09/25 01:46:20;;;;;;;7.88;1.58;;;8.70;99.90;;;;;;4229294;28;20040;-84
2022/09/25 01:48:26;;;;;;;5.78;1.45;;;8.60;99.90;;;;;;4228623;28;20051;-84
2022/09/25 01:50:34;;;;;;;4.47;1.02;;;8.60;99.90;;;;;;4247679;27;20055;-84
2022/09/25 01:52:44;;;;;;;4.57;0.98;;;8.60;99.90;;;;;;4247945;27;20126;-84
2022/09/25 01:54:47;;;;;;;;;;;8.40;99.90;;;;;;4230108;28;20052;-84
2022/09/25 01:56:55;;;;;;;3.78;0.73;;;8.70;99.90;;;;;;4229472;28;19932;-84
2022/09/25 01:59:04;;;;;;;4.20;1.45;;;8.60;99.90;;;;;;4247940;27;20046;-85
2022/09/25 02:01:13;;;;;;;5.85;1.00;;;8.60;99.90;;;;;;4229348;28;20047;-84
2022/09/25 02:03:26;;;;;;;9.23;1.08;;;8.60;99.90;;;;;;4247870;27;20499;-84
2022/09/25 02:05:51;;;;;;;2.38;1.20;;;8.60;99.90;;;;;;4247689;27;20045;-84
2022/09/25 02:08:02;;;;;;;6.40;1.50;;;8.60;99.90;;;;;;4247618;27;20047;-84
2022/09/25 02:10:08;;;;;;;2.85;0.98;;;8.50;99.90;;;;;;4247313;27;20039;-84
2022/09/25 02:12:18;;;;;;;8.10;1.15;;;8.50;99.90;;;;;;4212496;28;20162;-85
2022/09/25 02:14:30;;;;;;;3.00;1.10;;;8.60;99.90;;;;;;4229200;28;20085;-85
2022/09/25 02:16:36;;;;;;;10.77;1.52;;;8.60;99.90;;;;;;4247752;28;20479;-84
2022/09/25 02:21:04;;;;;;;5.45;1.65;;;8.50;99.90;;;;;;4247180;28;20479;-83
2022/09/25 02:23:46;;;;;;;5.40;0.93;;;8.50;99.90;;;;;;4229594;28;20035;-85
2022/09/25 02:26:13;;;;;;;5.00;1.10;;;8.40;99.90;;;;;;4178634;28;20521;-85
2022/09/25 02:28:14;;;;;;;2.88;1.08;;;8.40;99.90;;;;;;4228653;28;20058;-83
2022/09/25 02:30:16;;;;;;;2.70;1.00;;;8.40;99.90;;;;;;4247676;28;20074;-84
2022/09/25 02:32:21;;;;;;;3.05;1.20;;;8.40;99.90;;;;;;4246886;28;20365;-84
2022/09/25 02:34:22;;;;;;;3.35;1.02;;;8.30;99.90;;;;;;4229636;28;20051;-84
2022/09/25 02:36:23;;;;;;;4.35;1.50;;;8.30;99.90;;;;;;4247551;28;20050;-84
2022/09/25 02:38:24;;;;;;;6.47;1.02;;;8.30;99.90;;;;;;4247702;28;20043;-84
2022/09/25 02:40:35;;;;;;;3.83;0.90;;;8.30;99.90;;;;;;4247580;28;20047;-84
2022/09/25 02:42:57;;;;;;;7.13;1.33;;;8.30;99.90;;;;;;4247207;28;20054;-84
2022/09/25 02:45:38;;;;;;;3.95;1.25;;;8.30;99.90;;;;;;4247515;28;20054;-84
2022/09/25 02:47:42;;;;;;;6.13;1.45;;;8.30;99.90;;;;;;4233191;28;20059;-84
2022/09/25 02:50:07;;;;;;;8.13;1.40;;;8.30;99.90;;;;;;4229242;28;20047;-84
2022/09/25 02:52:17;;;;;;;3.40;1.15;;;8.30;99.90;;;;;;4247000;28;20482;-84
2022/09/25 02:54:29;;;;;;;4.65;0.90;;;8.30;99.90;;;;;;4247409;28;20126;-84
2022/09/25 02:56:41;;;;;;;7.18;1.08;;;8.30;99.90;;;;;;4247353;27;20371;-84
2022/09/25 02:58:51;;;;;;;5.40;1.02;;;8.30;99.90;;;;;;4246897;28;20062;-84
2022/09/25 03:00:55;;;;;;;3.35;1.02;;;8.30;99.90;;;;;;4247274;28;20043;-84
2022/09/25 03:02:58;;;;;;;4.55;0.88;;;8.30;99.90;;;;;;4228808;28;20051;-85
2022/09/25 03:05:01;;;;;;;2.20;1.23;;;8.30;99.90;;;;;;4247086;28;20495;-84
2022/09/25 03:07:02;;;;;;;5.18;1.35;;;8.40;99.90;;;;;;4247010;28;20047;-85
2022/09/25 03:09:05;;;;;;;11.45;2.10;;;8.30;99.90;;;;;;4229159;28;20545;-84
2022/09/25 03:11:16;;;;;;;5.90;1.30;;;8.30;99.90;;;;;;4212353;28;20503;-84
2022/09/25 03:13:21;;;;;;;3.05;1.25;;;8.30;99.90;;;;;;4228279;28;20098;-84
2022/09/25 03:15:23;;;;;;;8.23;1.88;;;8.30;99.90;;;;;;4247314;28;20476;-84
2022/09/25 03:17:25;;;;;;;9.68;2.05;;;8.30;99.90;;;;;;4228673;28;20067;-84
2022/09/25 03:19:27;;;;;;;8.52;1.08;;;8.30;99.90;;;;;;4247160;28;20095;-84
2022/09/25 03:21:28;;;;;;;5.28;0.90;;;8.30;99.90;;;;;;4247066;28;20132;-85
2022/09/25 03:23:30;;;;;;;5.95;0.95;;;8.30;99.90;;;;;;4228898;28;20051;-85
2022/09/25 03:25:30;;;;;;;4.10;0.70;;;7.70;99.90;;;;;;4228910;28;20075;-83
2022/09/25 03:27:32;;;;;;;3.85;1.13;;;8.30;99.90;;;;;;4230491;28;20039;-83
2022/09/25 03:29:34;;;;;;;5.97;1.38;;;8.30;99.90;;;;;;4231395;28;20155;-84
2022/09/25 03:31:35;;;;;;;4.72;1.40;;;8.40;99.90;;;;;;4231931;28;20047;-85
2022/09/25 03:33:39;;;;;;;3.60;1.20;;;8.40;99.90;;;;;;4231898;28;20050;-84
2022/09/25 03:35:39;;;;;;;5.22;1.25;;;8.40;99.90;;;;;;4250168;27;20044;-84
2022/09/25 03:37:40;;;;;;;4.68;1.20;;;8.50;99.90;;;;;;4232109;28;20594;-85
2022/09/25 03:39:41;;;;;;;4.32;1.10;;;8.50;99.90;;;;;;4249483;27;20088;-85
2022/09/25 03:41:42;;;;;;;6.13;1.50;;;8.60;99.90;;;;;;4231464;28;20423;-84
2022/09/25 03:43:46;;;;;;;6.85;1.08;;;8.50;99.90;;;;;;4250058;27;20050;-83
2022/09/25 03:45:48;;;;;;;11.68;1.67;;;8.50;99.90;;;;;;4249533;27;20075;-84
2022/09/25 03:47:50;;;;;;;5.13;0.93;;;8.60;99.90;;;;;;4249485;27;20047;-84
2022/09/25 03:49:50;;;;;;;2.97;0.98;;;8.50;99.90;;;;;;4249604;27;20384;-84
2022/09/25 03:51:51;;;;;;;4.45;1.00;;;8.60;99.90;;;;;;4249700;27;20103;-84
2022/09/25 03:53:53;;;;;;;5.97;0.93;;;8.50;99.90;;;;;;4249733;27;20043;-84
2022/09/25 03:55:53;;;;;;;6.28;1.10;;;8.50;99.90;;;;;;4249638;27;20475;-85
2022/09/25 03:57:54;;;;;;;4.50;0.73;;;8.50;99.90;;;;;;4231200;28;20047;-85
2022/09/25 03:59:59;;;;;;;4.97;0.60;;;8.50;99.90;;;;;;4230995;28;20512;-84
2022/09/25 04:02:01;;;;;;;2.53;0.93;;;8.50;99.90;;;;;;4214327;28;20160;-84
2022/09/25 04:04:02;;;;;;;4.10;0.77;;;8.40;99.90;;;;;;4249795;27;20137;-84
2022/09/25 04:06:05;;;;;;;3.75;0.82;;;8.40;99.90;;;;;;4249288;27;20103;-85
2022/09/25 04:08:06;;;;;;;4.13;0.90;;;8.40;99.90;;;;;;4231013;28;20047;-84
2022/09/25 04:10:08;;;;;;;3.45;1.08;;;8.40;99.90;;;;;;4249066;27;20433;-84
2022/09/25 04:12:08;;;;;;;4.43;1.10;;;8.30;99.90;;;;;;4231109;28;20089;-84
2022/09/25 04:14:11;;;;;;;3.67;1.20;;;8.30;99.90;;;;;;4249525;27;20530;-85
2022/09/25 04:16:15;;;;;;;4.82;1.00;;;8.30;99.90;;;;;;4249559;27;20060;-85
2022/09/25 04:18:16;;;;;;;3.20;0.93;;;8.30;99.90;;;;;;4249555;27;20047;-84
2022/09/25 04:20:17;;;;;;;3.58;1.38;;;8.30;99.90;;;;;;4249602;27;20471;-82
2022/09/25 04:22:19;;;;;;;4.78;1.27;;;8.30;99.90;;;;;;4230340;28;20094;-83
2022/09/25 04:26:39;;;;;;;5.57;1.00;;;8.20;99.90;;;;;;4230704;28;20043;-84
2022/09/25 04:28:40;;;;;;;6.22;1.00;;;8.30;99.90;;;;;;4249064;27;20505;-84
2022/09/25 04:30:41;;;;;;;2.30;0.98;;;8.20;99.90;;;;;;4213960;28;20047;-84
2022/09/25 04:35:03;;;;;;;7.38;1.85;;;8.20;99.90;;;;;;4230759;28;20506;-84
2022/09/25 04:37:03;;;;;;;7.47;1.70;;;8.20;99.90;;;;;;4214030;28;20137;-84
2022/09/25 04:39:05;;;;;;;5.18;1.10;;;8.20;99.90;;;;;;4248485;27;20506;-84
2022/09/25 04:41:06;;;;;;;7.00;1.35;;;8.30;99.90;;;;;;4230538;28;20582;-84
2022/09/25 04:43:07;;;;;;;3.80;0.80;;;8.50;99.90;;;;;;4248627;27;20047;-84
2022/09/25 04:45:08;;;;;;;8.50;2.38;;;8.20;99.90;;;;;;4233901;28;20044;-83
2022/09/25 04:47:12;;;;;;;6.28;1.10;;;8.20;99.90;;;;;;4229990;28;20052;-83
2022/09/25 04:49:12;;;;;;;2.55;1.20;;;8.10;99.90;;;;;;4248299;27;20403;-83
2022/09/25 04:51:14;;;;;;;8.07;0.95;;;8.10;99.90;;;;;;4230733;28;20056;-83
2022/09/25 04:53:15;;;;;;;4.50;1.58;;;8.10;99.90;;;;;;4248497;27;20125;-83
2022/09/25 04:55:21;;;;;;;4.28;1.10;;;8.00;99.90;;;;;;4230298;28;20055;-83
2022/09/25 04:57:22;;;;;;;4.95;1.13;;;8.00;99.90;;;;;;4230317;28;20059;-84
2022/09/25 04:59:23;;;;;;;6.85;1.13;;;7.90;99.90;;;;;;4248851;27;20144;-83
2022/09/25 05:01:24;;;;;;;1.65;0.90;;;7.90;99.90;;;;;;4248558;27;20051;-83
2022/09/25 05:03:24;;;;;;;5.60;0.88;;;7.90;99.90;;;;;;4248701;27;20487;-84
2022/09/25 05:05:26;;;;;;;8.68;1.65;;;7.90;99.90;;;;;;4230416;28;20494;-83
2022/09/25 05:07:26;;;;;;;2.90;1.10;;;7.80;99.90;;;;;;4229800;28;20051;-83
2022/09/25 05:09:27;;;;;;;3.47;0.95;;;7.80;99.90;;;;;;4248587;27;20035;-83
2022/09/25 05:11:29;;;;;;;3.00;1.30;;;7.80;99.90;;;;;;4230135;28;20523;-83
2022/09/25 05:13:30;;;;;;;5.55;1.42;;;7.50;99.90;;;;;;4248499;27;20053;-84
2022/09/25 05:15:32;;;;;;;6.47;1.25;;;7.80;99.90;;;;;;4230287;28;20130;-84
2022/09/25 05:17:32;;;;;;;5.15;1.35;;;7.80;99.90;;;;;;4229703;28;20177;-83
2022/09/25 05:19:34;;;;;;;6.18;1.30;;;7.80;99.90;;;;;;4229565;28;20488;-83
2022/09/25 05:21:35;;;;;;;3.88;1.20;;;7.70;99.90;;;;;;4247716;27;20046;-83
2022/09/25 05:23:36;;;;;;;3.35;0.90;;;7.70;99.90;;;;;;4228796;28;20117;-83
2022/09/25 05:25:38;;;;;;;2.20;0.88;;;7.70;99.90;;;;;;4228907;28;20052;-84
2022/09/25 05:27:38;;;;;;;6.18;1.05;;;7.80;99.90;;;;;;4247468;27;20053;-84
2022/09/25 05:29:39;;;;;;;1.73;1.17;;;7.70;99.90;;;;;;4229149;28;20039;-83
2022/09/25 05:31:41;;;;;;;5.60;1.00;;;7.70;99.90;;;;;;4212370;28;20047;-83
2022/09/25 05:33:42;;;;;;;6.18;1.10;;;7.80;99.90;;;;;;4228876;28;20085;-84
2022/09/25 05:35:43;;;;;;;5.90;1.15;;;7.80;99.90;;;;;;4247327;27;20047;-84
2022/09/25 05:37:43;;;;;;;5.75;1.33;;;7.80;99.90;;;;;;4247246;27;20090;-83
2022/09/25 05:39:44;;;;;;;4.25;0.80;;;7.90;99.90;;;;;;4212086;28;20052;-83
2022/09/25 05:41:45;;;;;;;2.33;0.80;;;7.90;99.90;;;;;;4228946;28;20075;-83
2022/09/25 05:43:46;;;;;;;5.78;1.05;;;7.90;99.90;;;;;;4228671;28;20040;-83
2022/09/25 05:45:56;;;;;;;5.25;0.82;;;7.90;99.90;;;;;;4246766;27;20042;-83
2022/09/25 05:48:01;;;;;;;6.45;0.98;;;7.90;99.90;;;;;;4247155;27;20043;-83
2022/09/25 05:50:03;;;;;;;6.28;1.05;;;7.90;99.90;;;;;;4211186;28;20128;-84
2022/09/25 05:52:05;;;;;;;7.72;2.15;;;7.90;99.90;;;;;;4247236;27;20411;-84
2022/09/25 05:54:05;;;;;;;2.63;0.85;;;7.90;99.90;;;;;;4228907;28;20157;-83
2022/09/25 05:56:07;;;;;;;1.90;0.90;;;7.90;99.90;;;;;;4228217;28;20044;-83
2022/09/25 05:58:08;;;;;;;3.05;1.23;;;8.00;99.90;;;;;;4229092;28;20048;-83
2022/09/25 06:00:11;;;;;;;2.10;0.98;;;8.00;99.90;;;;;;4229115;28;20096;-83
2022/09/25 06:02:12;;;;;;;7.20;1.10;;;8.00;99.90;;;;;;4228897;28;20076;-83
2022/09/25 06:04:12;;;;;;;2.63;1.20;;;8.30;99.90;;;;;;4247253;27;20071;-83
2022/09/25 06:06:13;;;;;;;2.55;1.10;;;8.10;99.90;;;;;;4228533;28;20044;-83
2022/09/25 06:08:14;;;;;;;2.90;1.10;;;8.10;99.90;;;;;;4228589;28;20109;-83
2022/09/25 06:10:14;;;;;;;4.40;1.27;;;8.10;99.90;;;;;;4228734;28;20086;-84
2022/09/25 06:12:15;;;;;;;5.68;1.40;;;8.10;99.90;;;;;;4247000;27;20046;-83
2022/09/25 06:14:16;;;;;;;4.28;0.75;;;8.10;99.90;;;;;;4228798;28;20047;-83
2022/09/25 06:16:18;;;;;;;9.85;1.30;;;8.20;99.90;;;;;;4228816;28;20047;-83
2022/09/25 06:18:20;;;;;;;5.55;1.10;;;8.20;99.90;;;;;;4228138;28;20090;-83
2022/09/25 06:20:22;;;;;;;6.63;0.98;;;8.20;99.90;;;;;;4246791;28;20096;-83
2022/09/25 06:22:22;;;;;;;5.65;1.30;;;8.20;99.90;;;;;;4228575;28;20075;-83
2022/09/25 06:24:23;;;;;;;4.53;0.88;;;8.30;99.90;;;;;;4228833;28;20403;-83
2022/09/25 06:26:24;;;;;;;2.97;0.73;;;8.30;99.90;;;;;;4223478;28;20051;-83
2022/09/25 06:28:25;;;;;;;3.88;1.00;;;8.30;99.90;;;;;;4246923;28;20106;-83
2022/09/25 06:30:38;;;;;;;4.18;1.13;;;8.40;99.90;;;;;;4246889;28;20046;-83
2022/09/25 06:32:38;;;;;;;3.13;1.20;;;8.40;99.90;;;;;;4246204;28;20043;-83
2022/09/25 06:34:40;;;;;;;4.72;1.30;;;8.40;99.90;;;;;;4228425;28;20048;-83
2022/09/25 06:36:41;;;;;;;11.38;1.65;;;8.50;99.90;;;;;;4228340;28;20043;-83
2022/09/25 06:38:42;;;;;;;6.68;1.05;;;8.60;99.90;;;;;;4246896;28;20043;-83
2022/09/25 06:40:42;;;;;;;5.10;1.10;;;8.60;99.90;;;;;;4228465;28;20054;-83
2022/09/25 06:42:44;;;;;;;4.40;1.10;;;8.60;99.90;;;;;;4228420;28;20044;-83
2022/09/25 06:44:45;;;;;;;5.22;0.90;;;8.70;99.90;;;;;;4228157;28;20548;-83
2022/09/25 06:46:50;;;;;;;7.07;1.00;;;8.70;99.90;;;;;;4246531;28;20054;-84
2022/09/25 06:48:53;;;;;;;5.47;0.98;;;8.80;99.90;;;;;;4246725;28;20118;-84
2022/09/25 06:50:56;;;;;;;5.63;0.70;;;8.90;99.90;;;;;;4228891;28;20051;-84
2022/09/25 06:52:58;;;;;;;2.05;0.88;;;8.90;99.90;;;;;;4228758;28;20592;-84
2022/09/25 06:54:59;;;;;;;1.88;0.93;;;9.00;99.90;;;;;;4247127;27;20487;-84
2022/09/25 06:57:00;;;;;;;6.50;1.08;;;9.10;99.90;;;;;;4246968;28;20044;-85
2022/09/25 06:59:01;;;;;;;3.85;0.70;;;9.00;99.90;;;;;;4228693;28;20096;-83
2022/09/25 07:01:02;;;;;;;3.08;0.98;;;9.50;99.90;;;;;;4247981;27;20036;-84
2022/09/25 07:05:22;;;;;;;5.38;1.17;;;9.30;99.90;;;;;;4232381;28;20487;-83
2022/09/25 07:07:23;;;;;;;4.25;1.30;;;9.30;99.90;;;;;;4232172;28;20049;-83
2022/09/25 07:09:23;;;;;;;4.18;0.68;;;9.40;99.90;;;;;;4232148;28;20051;-83
2022/09/25 07:11:27;;;;;;;2.22;0.73;;;9.50;99.90;;;;;;4249971;27;20046;-83
2022/09/25 07:13:30;;;;;;;3.90;0.60;;;9.50;99.90;;;;;;4231208;28;20134;-83
2022/09/25 07:15:31;;;;;;;4.53;0.80;;;9.60;99.90;;;;;;4220448;28;20400;-83
2022/09/25 07:17:31;;;;;;;5.97;1.00;;;9.70;99.90;;;;;;4233364;28;20058;-83
2022/09/25 07:19:32;;;;;;;3.47;0.70;;;9.80;99.90;;;;;;4215402;28;20040;-83
2022/09/25 07:21:33;;;;;;;1.75;0.90;;;9.90;99.90;;;;;;4233204;28;20093;-83
2022/09/25 07:23:34;;;;;;;6.70;0.80;;;10.00;99.90;;;;;;4215152;28;20063;-83
2022/09/25 07:25:35;;;;;;;5.18;1.67;;;10.20;99.90;;;;;;4215205;28;20403;-83
2022/09/25 07:27:35;;;;;;;3.25;0.60;;;10.50;99.90;;;;;;4214754;28;20044;-83
2022/09/25 07:29:36;;;;;;;10.57;1.48;;;10.70;99.90;;;;;;4235641;27;20048;-83
2022/09/25 07:31:37;;;;;;;5.03;0.65;;;10.90;99.90;;;;;;4231985;28;20043;-83
2022/09/25 07:33:40;;;;;;;6.03;0.93;;;11.20;99.90;;;;;;4250036;27;20039;-83
2022/09/25 07:35:41;;;;;;;6.70;1.08;;;11.40;99.90;;;;;;4250385;27;20050;-83
2022/09/25 07:37:41;;;;;;;8.18;1.58;;;11.60;99.90;;;;;;4250460;27;20047;-83
2022/09/25 07:39:42;;;;;;;4.20;0.90;;;11.90;99.90;;;;;;4245338;27;20039;-83
2022/09/25 07:41:43;;;;;;;2.42;0.80;;;12.30;99.90;;;;;;4215885;28;20044;-83
2022/09/25 07:43:44;;;;;;;4.30;0.90;;;13.30;99.90;;;;;;4214906;28;20047;-84
2022/09/25 07:45:52;;;;;;;3.28;0.68;;;14.30;99.90;;;;;;4230693;28;20141;-84
2022/09/25 07:47:56;;;;;;;3.00;1.05;;;15.40;99.90;;;;;;4232367;28;20055;-84
2022/09/25 07:49:58;;;;;;;5.03;1.33;;;16.20;99.90;;;;;;4249787;27;20055;-83
2022/09/25 07:51:59;;;;;;;8.05;1.13;;;16.60;99.90;;;;;;4231574;28;20055;-83
2022/09/25 07:54:00;;;;;;;4.88;0.77;;;17.00;99.90;;;;;;4232022;28;20431;-83
2022/09/25 07:56:01;;;;;;;5.50;0.90;;;17.60;99.90;;;;;;4231255;28;20044;-84
2022/09/25 07:58:02;;;;;;;6.45;0.65;;;18.30;99.90;;;;;;4231640;28;20043;-84
2022/09/25 08:00:04;;;;;;;7.45;0.95;;;18.90;99.20;;;;;;4231596;28;20085;-83
2022/09/25 08:02:05;;;;;;;5.57;0.60;;;19.30;98.40;;;;;;4249956;27;20054;-82
2022/09/25 08:04:06;;;;;;;3.97;0.40;;;19.70;97.80;;;;;;4231618;28;20055;-83
2022/09/25 08:06:10;;;;;;;2.85;0.98;;;20.00;97.50;;;;;;4249970;27;20043;-83
2022/09/25 08:08:11;;;;;;;4.35;0.70;;;20.40;97.00;;;;;;4231739;28;20519;-82
2022/09/25 08:10:12;;;;;;;6.72;1.30;;;20.70;96.70;;;;;;4249248;27;20039;-82
2022/09/25 08:12:12;;;;;;;6.03;0.60;;;20.80;96.40;;;;;;4246525;27;20502;-83
2022/09/25 08:14:13;;;;;;;4.70;0.60;;;20.30;96.60;;;;;;4237826;27;20113;-83
2022/09/25 08:16:16;;;;;;;4.38;0.90;;;19.30;97.30;;;;;;4231423;28;20221;-83
2022/09/25 08:18:17;;;;;;;6.50;1.10;;;20.00;97.90;;;;;;4243719;27;20046;-83
2022/09/25 08:20:18;;;;;;;4.97;0.63;;;20.60;97.60;;;;;;4214278;28;20524;-83
2022/09/25 08:22:19;;;;;;;3.38;0.50;;;21.20;96.70;;;;;;4214219;28;20044;-83
2022/09/25 08:24:20;;;;;;;5.70;1.30;;;21.80;96.20;;;;;;4232381;28;20396;-83
2022/09/25 08:26:22;;;;;;;4.43;0.47;;;22.30;95.50;;;;;;4224376;28;20507;-83
2022/09/25 08:28:22;;;;;;;1.48;0.25;;;22.80;94.70;;;;;;4231272;28;20812;-83
2022/09/25 08:30:23;;;;;;;6.22;0.40;;;23.30;94.30;;;;;;4250991;27;20082;-83
2022/09/25 08:32:24;;;;;;;3.38;0.55;;;23.60;93.70;;;;;;4230716;28;20051;-83
2022/09/25 08:34:26;;;;;;;3.92;0.50;;;23.30;93.60;;;;;;4231073;28;20039;-83
2022/09/25 08:36:27;;;;;;;5.55;1.02;;;22.50;94.40;;;;;;4249493;27;20063;-83
2022/09/25 08:38:31;;;;;;;2.92;0.65;;;21.50;95.50;;;;;;4226326;28;20112;-83
2022/09/25 08:40:35;;;;;;;3.47;0.52;;;20.50;96.90;;;;;;4218915;28;20058;-83
2022/09/25 08:42:36;;;;;;;3.17;0.60;;;19.60;98.20;;;;;;4232401;28;20040;-82
2022/09/25 08:44:46;;;;;;;5.03;0.98;;;18.80;99.30;;;;;;4244605;27;20078;-82
2022/09/25 08:49:20;;;;;;;2.65;0.63;;;17.50;99.90;;;;;;4248257;27;20090;-84
2022/09/25 08:51:21;;;;;;;1.02;0.40;;;16.80;99.90;;;;;;4248657;27;20126;-82
2022/09/25 08:53:27;;;;;;;3.97;1.08;;;16.30;99.90;;;;;;4248316;27;20482;-82
2022/09/25 08:57:54;;;;;;;0.90;0.30;;;15.60;99.90;;;;;;4248771;27;20051;-82
2022/09/25 09:00:00;;;;;;;1.50;0.40;;;15.40;99.90;;;;;;4230521;28;20450;-83
2022/09/25 09:02:12;;;;;;;1.40;0.40;;;15.20;99.90;;;;;;4227841;28;20043;-82
2022/09/25 09:04:26;;;;;;;1.35;0.38;;;15.00;99.90;;;;;;4231433;28;20051;-82
2022/09/25 09:06:28;;;;;;;4.68;0.40;;;14.80;99.90;;;;;;4231414;28;20075;-82
2022/09/25 09:08:33;;;;;;;1.23;0.40;;;14.60;99.90;;;;;;4231067;28;20108;-83
2022/09/25 09:10:42;;;;;;;3.03;0.45;;;14.60;99.90;;;;;;4230777;28;20089;-83
2022/09/25 09:12:47;;;;;;;3.17;0.70;;;14.50;99.90;;;;;;4213213;28;20530;-83
2022/09/25 09:14:53;;;;;;;1.10;0.30;;;14.50;99.90;;;;;;4196195;28;20053;-83
2022/09/25 09:17:17;;;;;;;3.20;0.40;;;14.40;99.90;;;;;;4231317;28;20160;-82
2022/09/25 09:19:18;;;;;;;4.47;0.65;;;14.50;99.90;;;;;;4213127;28;20539;-82
2022/09/25 09:21:35;;;;;;;6.40;0.60;;;14.60;99.90;;;;;;4246419;27;20043;-83
2022/09/25 09:23:52;;;;;;;3.75;0.50;;;14.60;99.90;;;;;;4247800;27;20444;-83
2022/09/25 09:26:05;;;;;;;9.30;0.65;;;14.50;99.90;;;;;;4248209;27;20039;-83
2022/09/25 09:28:14;;;;;;;2.58;0.70;;;14.40;99.90;;;;;;4248085;27;20047;-83
2022/09/25 09:30:25;;;;;;;3.30;0.88;;;14.20;99.90;;;;;;4247504;27;20050;-83
2022/09/25 09:32:44;;;;;;;1.98;0.50;;;14.10;99.90;;;;;;4212854;28;20051;-83
2022/09/25 09:35:16;;;;;;;2.00;0.47;;;14.00;99.90;;;;;;4247794;27;20054;-83
2022/09/25 09:37:21;;;;;;;1.63;0.60;;;13.80;99.90;;;;;;4229635;28;20047;-84
2022/09/25 09:39:22;;;;;;;6.97;0.40;;;13.70;99.90;;;;;;4229974;28;20466;-83
2022/09/25 09:42:00;;;;;;;4.25;1.15;;;13.70;99.90;;;;;;4247929;27;20051;-83
2022/09/25 09:44:39;;;;;;;4.70;0.80;;;13.60;99.90;;;;;;4247551;27;20564;-84
2022/09/25 09:46:43;;;;;;;8.48;0.50;;;13.70;99.90;;;;;;4208153;27;20043;-84
2022/09/25 09:49:05;;;;;;;1.38;0.35;;;13.80;99.90;;;;;;4247858;27;20511;-85
2022/09/25 09:51:17;;;;;;;2.75;0.98;;;13.90;99.90;;;;;;4247380;27;20489;-84
2022/09/25 09:53:39;;;;;;;3.63;0.70;;;14.00;99.90;;;;;;4247436;27;20482;-84
2022/09/25 09:55:49;;;;;;;3.90;0.45;;;14.00;99.90;;;;;;4211294;28;20047;-84
2022/09/25 09:57:58;;;;;;;2.75;0.57;;;14.20;99.90;;;;;;4247095;27;20039;-83
2022/09/25 10:00:04;;;;;;;2.33;0.68;;;14.30;99.90;;;;;;4247566;27;20114;-84
2022/09/25 10:02:25;;;;;;;6.10;1.00;;;14.40;99.90;;;;;;4247938;27;20043;-83
2022/09/25 10:04:32;;;;;;;2.42;0.50;;;14.60;99.90;;;;;;4247537;27;20399;-83
2022/09/25 10:06:37;;;;;;;2.83;0.60;;;14.80;99.90;;;;;;4229304;28;20086;-83
2022/09/25 10:08:38;;;;;;;3.25;0.47;;;15.10;99.90;;;;;;4227223;28;20074;-84
2022/09/25 10:10:41;;;;;;;5.03;0.60;;;15.40;99.90;;;;;;4233385;28;20047;-83
2022/09/25 10:12:49;;;;;;;2.05;0.47;;;15.80;99.90;;;;;;4230265;28;20044;-84
2022/09/25 10:14:51;;;;;;;0.93;0.40;;;16.10;99.90;;;;;;4212642;28;20403;-83
2022/09/25 10:16:53;;;;;;;6.50;0.52;;;16.30;99.90;;;;;;4230805;28;20054;-83
2022/09/25 10:18:59;;;;;;;6.07;0.63;;;16.50;99.90;;;;;;4231030;28;20047;-84
2022/09/25 10:21:09;;;;;;;2.03;0.60;;;16.70;99.90;;;;;;4230526;28;20386;-84
2022/09/25 10:23:20;;;;;;;;;;;16.90;99.90;;;;;;4229237;28;20043;-84
2022/09/25 10:25:39;;;;;;;5.30;1.05;;;17.10;99.90;;;;;;4227904;28;20291;-84
2022/09/25 10:27:44;;;;;;;;;;;17.30;99.90;;;;;;4229282;28;20050;-84
2022/09/25 10:29:45;;;;;;;5.28;0.55;;;18.00;99.90;;;;;;4210376;28;19946;-84
2022/09/25 10:31:47;;;;;;;2.42;0.38;;;18.60;99.90;;;;;;4228317;28;20480;-84
2022/09/25 10:34:00;;;;;;;1.13;0.50;;;18.90;99.90;;;;;;4228654;28;20039;-84
2022/09/25 10:36:01;;;;;;;1.98;0.65;;;19.20;99.90;;;;;;4229225;28;20491;-84
2022/09/25 10:38:03;;;;;;;1.67;0.30;;;19.30;99.90;;;;;;4232769;28;20047;-84
2022/09/25 10:40:24;;;;;;;1.73;0.30;;;19.30;99.90;;;;;;4233851;28;20508;-84
2022/09/25 10:42:33;;;;;;;3.45;0.50;;;19.30;99.90;;;;;;4233764;28;20462;-84
2022/09/25 10:44:36;;;;;;;2.60;0.45;;;19.30;99.70;;;;;;4215863;28;20099;-84
2022/09/25 10:52:06;;;;;;;3.47;0.90;;;19.60;98.70;;;;;;4215365;28;20048;-84
2022/09/25 10:54:14;;;;;;;1.75;0.32;;;19.60;97.60;;;;;;4233689;28;20487;-84
2022/09/25 10:56:34;;;;;;;2.75;0.28;;;19.50;98.40;;;;;;4233526;28;20141;-84
2022/09/25 10:58:42;;;;;;;1.88;0.30;;;19.40;98.50;;;;;;4233143;28;20035;-84
2022/09/25 11:00:53;;;;;;;2.13;0.30;;;19.40;98.10;;;;;;4233873;28;20083;-84
2022/09/25 11:02:58;;;;;;;0.65;0.20;;;19.30;97.80;;;;;;4233475;28;20103;-84
2022/09/25 11:04:59;;;;;;;2.15;0.20;;;19.20;97.70;;;;;;4233467;28;20043;-84
2022/09/25 11:07:03;;;;;;;3.03;0.10;;;19.20;97.50;;;;;;4233390;28;20535;-84
2022/09/25 11:09:11;;;;;;;1.27;0.17;;;19.20;96.80;;;;;;4233425;28;20452;-84
2022/09/25 11:11:12;;;;;;;1.15;0.30;;;19.20;96.20;;;;;;4215295;28;20040;-83
2022/09/25 11:13:44;;;;;;;0.98;0.20;;;19.30;96.30;;;;;;4232631;28;20092;-84
2022/09/25 11:15:52;;;;;;;1.02;0.28;;;19.60;95.60;;;;;;4232266;28;20055;-84
2022/09/25 11:17:55;;;;;;;3.20;1.05;;;20.00;95.70;;;;;;4233309;28;20040;-84
2022/09/25 11:20:15;;;;;;;2.03;0.25;;;20.50;95.50;;;;;;4233151;28;20055;-84